createdAt,value
2019-05-09T00:00:43.925Z,6.29
2019-05-09T00:01:43.892Z,6.38
2019-05-09T00:02:43.656Z,6.29
2019-05-09T00:03:44.112Z,6.28
2019-05-09T00:04:43.910Z,6.34
2019-05-09T00:05:44.030Z,6.50
2019-05-09T00:06:43.112Z,6.46
2019-05-09T00:07:43.961Z,6.49
2019-05-09T00:08:44.218Z,6.39
2019-05-09T00:09:44.111Z,6.41
2019-05-09T00:10:44.796Z,6.36
2019-05-09T00:11:43.950Z,6.38
2019-05-09T00:12:43.759Z,6.41
2019-05-09T00:13:43.444Z,6.47
2019-05-09T00:14:43.368Z,6.36
2019-05-09T00:15:43.662Z,6.36
2019-05-09T00:16:43.917Z,6.36
2019-05-09T00:17:43.974Z,6.36
2019-05-09T00:18:44.093Z,6.50
2019-05-09T00:19:43.861Z,6.36
2019-05-09T00:20:43.598Z,6.44
2019-05-09T00:21:43.715Z,6.54
2019-05-09T00:22:43.548Z,6.60
2019-05-09T00:23:43.761Z,6.50
2019-05-09T00:24:44.645Z,6.49
2019-05-09T00:25:43.348Z,6.57
2019-05-09T00:26:44.260Z,6.59
2019-05-09T00:27:43.559Z,6.52
2019-05-09T00:28:44.085Z,6.59
2019-05-09T00:29:43.873Z,6.64
2019-05-09T00:30:43.686Z,6.57
2019-05-09T00:31:43.783Z,6.64
2019-05-09T00:32:43.231Z,6.78
2019-05-09T00:33:44.114Z,6.72
2019-05-09T00:34:44.186Z,6.65
2019-05-09T00:35:44.262Z,6.67
2019-05-09T00:36:43.802Z,6.72
2019-05-09T00:37:43.260Z,6.80
2019-05-09T00:38:43.531Z,6.75
2019-05-09T00:39:43.521Z,6.75
2019-05-09T00:40:55.252Z,6.86
2019-05-09T00:41:43.565Z,6.90
2019-05-09T00:42:44.044Z,6.89
2019-05-09T00:43:43.631Z,6.90
2019-05-09T00:44:43.181Z,6.86
2019-05-09T00:45:43.857Z,6.87
2019-05-09T00:46:43.210Z,6.75
2019-05-09T00:47:43.431Z,6.75
2019-05-09T00:48:43.885Z,6.75
2019-05-09T00:49:43.548Z,6.71
2019-05-09T00:50:43.756Z,6.87
2019-05-09T00:51:43.763Z,6.90
2019-05-09T00:52:43.317Z,6.89
2019-05-09T00:53:44.434Z,6.83
2019-05-09T00:54:43.815Z,6.86
2019-05-09T00:55:43.723Z,6.89
2019-05-09T00:56:43.685Z,6.86
2019-05-09T00:57:44.016Z,6.72
2019-05-09T00:58:44.106Z,6.74
2019-05-09T00:59:44.622Z,6.67
2019-05-09T01:00:44.067Z,6.75
2019-05-09T01:01:43.810Z,6.80
2019-05-09T01:02:43.686Z,6.86
2019-05-09T01:03:43.633Z,6.83
2019-05-09T01:04:43.859Z,6.80
2019-05-09T01:05:43.811Z,6.85
2019-05-09T01:06:43.719Z,6.86
2019-05-09T01:07:43.749Z,6.83
2019-05-09T01:08:44.266Z,6.80
2019-05-09T01:09:44.008Z,6.87
2019-05-09T01:10:43.833Z,6.97
2019-05-09T01:11:44.139Z,6.96
2019-05-09T01:12:43.893Z,6.90
2019-05-09T01:13:43.921Z,6.90
2019-05-09T01:14:43.949Z,6.93
2019-05-09T01:15:44.153Z,6.90
2019-05-09T01:16:44.180Z,7.01
2019-05-09T01:17:44.270Z,6.86
2019-05-09T01:18:44.066Z,6.82
2019-05-09T01:19:44.093Z,6.74
2019-05-09T01:20:44.173Z,6.64
2019-05-09T01:21:44.153Z,6.56
2019-05-09T01:22:44.183Z,6.70
2019-05-09T01:23:44.209Z,6.82
2019-05-09T01:24:44.366Z,6.83
2019-05-09T01:25:44.268Z,6.77
2019-05-09T01:26:44.293Z,6.80
2019-05-09T01:27:44.322Z,6.86
2019-05-09T01:28:44.402Z,6.83
2019-05-09T01:29:44.382Z,6.75
2019-05-09T01:30:44.409Z,6.71
2019-05-09T01:31:44.438Z,6.67
2019-05-09T01:32:44.467Z,6.70
2019-05-09T01:33:44.497Z,6.64
2019-05-09T01:34:44.523Z,6.67
2019-05-09T01:35:44.553Z,6.59
2019-05-09T01:36:44.583Z,6.57
2019-05-09T01:37:44.610Z,6.50
2019-05-09T01:38:44.641Z,6.53
2019-05-09T01:39:44.673Z,6.57
2019-05-09T01:40:44.700Z,6.60
2019-05-09T01:41:44.728Z,6.64
2019-05-09T01:42:44.754Z,6.53
2019-05-09T01:43:44.785Z,6.57
2019-05-09T01:44:44.816Z,6.53
2019-05-09T01:45:47.008Z,6.68
2019-05-09T01:46:44.870Z,6.57
2019-05-09T01:47:44.899Z,6.67
2019-05-09T01:48:44.928Z,6.67
2019-05-09T01:49:44.956Z,6.62
2019-05-09T01:50:44.989Z,6.60
2019-05-09T01:51:45.013Z,6.56
2019-05-09T01:52:45.042Z,6.71
2019-05-09T01:53:45.072Z,6.72
2019-05-09T01:54:45.101Z,6.77
2019-05-09T01:55:45.127Z,6.74
2019-05-09T01:56:45.159Z,6.74
2019-05-09T01:57:47.819Z,6.87
2019-05-09T01:58:45.219Z,6.89
2019-05-09T01:59:45.243Z,6.85
2019-05-09T02:00:45.271Z,6.72
2019-05-09T02:01:45.300Z,6.67
2019-05-09T02:02:45.328Z,6.70
2019-05-09T02:03:45.357Z,6.56
2019-05-09T02:04:45.385Z,6.59
2019-05-09T02:05:45.415Z,6.62
2019-05-09T02:06:45.445Z,6.57
2019-05-09T02:07:45.472Z,6.57
2019-05-09T02:08:45.502Z,6.53
2019-05-09T02:09:45.534Z,6.56
2019-05-09T02:10:45.557Z,6.57
2019-05-09T02:11:45.805Z,6.64
2019-05-09T02:12:45.618Z,6.68
2019-05-09T02:13:45.646Z,6.86
2019-05-09T02:14:45.674Z,6.75
2019-05-09T02:15:45.701Z,6.70
2019-05-09T02:16:45.742Z,6.85
2019-05-09T02:17:57.827Z,6.85
2019-05-09T02:18:45.790Z,6.80
2019-05-09T02:19:45.816Z,6.85
2019-05-09T02:20:45.845Z,6.74
2019-05-09T02:21:45.885Z,6.85
2019-05-09T02:22:45.904Z,6.77
2019-05-09T02:23:45.936Z,6.82
2019-05-09T02:24:45.961Z,6.68
2019-05-09T02:25:45.989Z,6.75
2019-05-09T02:26:46.022Z,6.75
2019-05-09T02:27:46.045Z,6.95
2019-05-09T02:28:46.075Z,6.95
2019-05-09T02:29:46.104Z,7.04
2019-05-09T02:30:46.135Z,7.01
2019-05-09T02:31:46.162Z,6.93
2019-05-09T02:32:46.191Z,7.03
2019-05-09T02:33:46.228Z,7.03
2019-05-09T02:34:46.249Z,7.08
2019-05-09T02:35:56.299Z,7.05
2019-05-09T02:36:49.389Z,6.96
2019-05-09T02:37:49.521Z,7.04
2019-05-09T02:38:48.672Z,7.04
2019-05-09T02:39:49.071Z,7.08
2019-05-09T02:40:48.654Z,6.95
2019-05-09T02:42:00.857Z,6.97
2019-05-09T02:42:49.030Z,7.07
2019-05-09T02:43:49.541Z,7.01
2019-05-09T02:44:49.307Z,7.11
2019-05-09T02:45:52.349Z,7.21
2019-05-09T02:46:49.195Z,7.13
2019-05-09T02:47:49.045Z,7.23
2019-05-09T02:48:49.462Z,7.15
2019-05-09T02:49:48.629Z,7.26
2019-05-09T02:50:48.563Z,7.21
2019-05-09T02:51:48.746Z,7.36
2019-05-09T02:52:48.692Z,7.26
2019-05-09T02:53:48.552Z,7.13
2019-05-09T02:54:49.967Z,7.19
2019-05-09T02:55:49.531Z,7.39
2019-05-09T02:56:49.305Z,7.32
2019-05-09T02:57:48.946Z,7.33
2019-05-09T02:58:48.503Z,7.31
2019-05-09T02:59:49.254Z,7.37
2019-05-09T03:00:48.177Z,7.40
2019-05-09T03:01:49.448Z,7.39
2019-05-09T03:02:48.724Z,7.44
2019-05-09T03:03:48.214Z,7.39
2019-05-09T03:04:48.960Z,7.37
2019-05-09T03:05:48.764Z,7.37
2019-05-09T03:06:49.262Z,7.32
2019-05-09T03:07:48.561Z,7.40
2019-05-09T03:08:49.122Z,7.39
2019-05-09T03:09:48.121Z,7.39
2019-05-09T03:10:49.000Z,7.44
2019-05-09T03:11:48.532Z,7.37
2019-05-09T03:12:50.250Z,7.41
2019-05-09T03:13:49.506Z,7.51
2019-05-09T03:14:48.740Z,7.56
2019-05-09T03:15:49.470Z,7.59
2019-05-09T03:16:49.212Z,7.67
2019-05-09T03:17:49.333Z,7.67
2019-05-09T03:18:49.406Z,7.61
2019-05-09T03:19:48.806Z,7.67
2019-05-09T03:20:49.242Z,7.59
2019-05-09T03:21:49.307Z,7.72
2019-05-09T03:22:48.655Z,7.80
2019-05-09T03:23:48.884Z,7.85
2019-05-09T03:24:48.558Z,7.83
2019-05-09T03:25:48.571Z,7.96
2019-05-09T03:26:49.384Z,7.99
2019-05-09T03:27:48.492Z,8.05
2019-05-09T03:28:49.227Z,8.06
2019-05-09T03:29:48.851Z,8.05
2019-05-09T03:30:50.086Z,8.05
2019-05-09T03:31:50.076Z,8.08
2019-05-09T03:32:49.031Z,8.05
2019-05-09T03:33:50.079Z,8.03
2019-05-09T03:34:47.999Z,8.11
2019-05-09T03:35:48.218Z,8.18
2019-05-09T03:36:48.057Z,8.36
2019-05-09T03:37:48.149Z,8.36
2019-05-09T03:38:48.117Z,8.36
2019-05-09T03:39:48.147Z,8.35
2019-05-09T03:40:48.178Z,8.34
2019-05-09T03:41:48.856Z,8.39
2019-05-09T03:42:48.679Z,8.39
2019-05-09T03:43:48.416Z,8.38
2019-05-09T03:44:48.302Z,8.45
2019-05-09T03:45:48.326Z,8.59
2019-05-09T03:46:48.356Z,8.66
2019-05-09T03:47:48.386Z,8.71
2019-05-09T03:48:48.420Z,8.66
2019-05-09T03:49:48.448Z,8.71
2019-05-09T03:50:48.743Z,8.60
2019-05-09T03:51:48.508Z,8.68
2019-05-09T03:52:48.539Z,8.59
2019-05-09T03:53:48.585Z,8.57
2019-05-09T03:54:48.600Z,8.53
2019-05-09T03:55:48.632Z,8.50
2019-05-09T03:56:48.664Z,8.53
2019-05-09T03:57:48.694Z,8.54
2019-05-09T03:58:48.724Z,8.46
2019-05-09T03:59:48.752Z,8.59
2019-05-09T04:00:48.783Z,8.53
2019-05-09T04:01:50.366Z,8.53
2019-05-09T04:02:48.847Z,8.57
2019-05-09T04:03:48.878Z,8.44
2019-05-09T04:04:48.909Z,8.53
2019-05-09T04:05:59.279Z,8.46
2019-05-09T04:06:48.968Z,8.44
2019-05-09T04:07:48.999Z,8.45
2019-05-09T04:08:49.032Z,8.54
2019-05-09T04:09:49.061Z,8.64
2019-05-09T04:10:50.157Z,8.66
2019-05-09T04:11:49.123Z,8.84
2019-05-09T04:12:55.780Z,8.96
2019-05-09T04:13:49.183Z,9.09
2019-05-09T04:14:49.213Z,8.93
2019-05-09T04:15:49.244Z,9.16
2019-05-09T04:16:49.282Z,9.24
2019-05-09T04:17:49.315Z,9.31
2019-05-09T04:18:49.337Z,9.54
2019-05-09T04:19:49.366Z,9.40
2019-05-09T04:20:49.401Z,9.26
2019-05-09T04:21:49.429Z,9.13
2019-05-09T04:22:49.465Z,9.13
2019-05-09T04:23:49.493Z,9.18
2019-05-09T04:24:49.524Z,9.05
2019-05-09T04:25:49.557Z,8.99
2019-05-09T04:26:49.585Z,9.00
2019-05-09T04:27:49.616Z,9.15
2019-05-09T04:28:49.647Z,9.11
2019-05-09T04:29:49.678Z,9.09
2019-05-09T04:30:49.708Z,8.96
2019-05-09T04:31:49.744Z,8.95
2019-05-09T04:32:49.772Z,8.96
2019-05-09T04:33:49.804Z,9.11
2019-05-09T04:34:49.837Z,9.13
2019-05-09T04:35:49.865Z,9.03
2019-05-09T04:36:49.896Z,9.05
2019-05-09T04:37:49.928Z,9.11
2019-05-09T04:38:49.963Z,9.05
2019-05-09T04:39:53.922Z,9.24
2019-05-09T04:40:50.022Z,9.29
2019-05-09T04:41:50.058Z,9.48
2019-05-09T04:42:50.090Z,9.76
2019-05-09T04:43:50.115Z,9.97
2019-05-09T04:44:57.415Z,10.09
2019-05-09T04:45:53.222Z,10.20
2019-05-09T04:46:54.043Z,10.67
2019-05-09T04:47:50.246Z,11.02
2019-05-09T04:48:54.018Z,11.15
2019-05-09T04:49:50.323Z,11.73
2019-05-09T04:50:50.341Z,11.59
2019-05-09T04:51:50.375Z,11.86
2019-05-09T04:52:50.406Z,11.96
2019-05-09T04:53:50.440Z,11.97
2019-05-09T04:54:50.472Z,12.25
2019-05-09T04:55:50.506Z,12.18
2019-05-09T04:56:53.654Z,12.50
2019-05-09T04:57:50.575Z,12.47
2019-05-09T04:58:50.612Z,12.29
2019-05-09T04:59:50.643Z,12.65
2019-05-09T05:00:50.677Z,12.61
2019-05-09T05:01:50.716Z,12.62
2019-05-09T05:02:50.749Z,12.78
2019-05-09T05:03:50.788Z,12.65
2019-05-09T05:04:50.819Z,12.10
2019-05-09T05:05:50.854Z,12.26
2019-05-09T05:06:50.889Z,12.63
2019-05-09T05:07:50.924Z,12.57
2019-05-09T05:08:50.961Z,12.44
2019-05-09T05:09:50.997Z,12.23
2019-05-09T05:10:51.032Z,12.88
2019-05-09T05:11:51.069Z,13.09
2019-05-09T05:12:51.108Z,13.19
2019-05-09T05:13:51.144Z,12.84
2019-05-09T05:14:51.178Z,13.20
2019-05-09T05:15:51.218Z,13.26
2019-05-09T05:16:52.895Z,13.49
2019-05-09T05:17:51.289Z,13.21
2019-05-09T05:18:51.327Z,13.16
2019-05-09T05:19:51.368Z,12.43
2019-05-09T05:20:51.401Z,12.21
2019-05-09T05:21:51.443Z,12.28
2019-05-09T05:22:51.477Z,12.75
2019-05-09T05:23:51.517Z,13.01
2019-05-09T05:24:55.262Z,12.95
2019-05-09T05:25:51.590Z,12.65
2019-05-09T05:26:51.623Z,12.78
2019-05-09T05:27:51.664Z,12.40
2019-05-09T05:28:51.704Z,12.68
2019-05-09T05:29:51.742Z,12.99
2019-05-09T05:30:51.778Z,12.99
2019-05-09T05:31:51.813Z,12.99
2019-05-09T05:32:51.852Z,12.69
2019-05-09T05:33:53.927Z,12.83
2019-05-09T05:34:51.930Z,12.65
2019-05-09T05:35:51.967Z,13.02
2019-05-09T05:36:52.005Z,13.11
2019-05-09T05:37:52.043Z,12.76
2019-05-09T05:38:52.081Z,12.70
2019-05-09T05:39:52.123Z,12.72
2019-05-09T05:40:52.182Z,12.91
2019-05-09T05:41:52.194Z,12.80
2019-05-09T05:42:52.232Z,13.02
2019-05-09T05:43:52.270Z,13.23
2019-05-09T05:44:52.308Z,13.89
2019-05-09T05:45:52.349Z,13.95
2019-05-09T05:46:52.387Z,13.76
2019-05-09T05:47:52.423Z,12.88
2019-05-09T05:48:52.462Z,12.68
2019-05-09T05:49:52.503Z,13.55
2019-05-09T05:50:52.542Z,13.39
2019-05-09T05:51:52.582Z,13.80
2019-05-09T05:52:52.614Z,13.37
2019-05-09T05:53:52.653Z,13.36
2019-05-09T05:54:52.692Z,13.87
2019-05-09T05:55:52.957Z,13.85
2019-05-09T05:56:52.770Z,14.04
2019-05-09T05:57:52.807Z,13.47
2019-05-09T05:58:52.848Z,14.25
2019-05-09T05:59:52.886Z,14.31
2019-05-09T06:00:52.934Z,13.80
2019-05-09T06:01:52.974Z,13.98
2019-05-09T06:02:53.006Z,13.86
2019-05-09T06:03:53.047Z,13.40
2019-05-09T06:04:53.081Z,13.47
2019-05-09T06:05:53.126Z,13.49
2019-05-09T06:06:53.162Z,13.83
2019-05-09T06:07:53.200Z,13.60
2019-05-09T06:08:53.238Z,14.11
2019-05-09T06:09:53.279Z,14.70
2019-05-09T06:10:53.322Z,14.56
2019-05-09T06:11:53.357Z,14.93
2019-05-09T06:12:53.399Z,14.26
2019-05-09T06:13:57.576Z,14.52
2019-05-09T06:14:53.475Z,14.44
2019-05-09T06:15:53.516Z,14.59
2019-05-09T06:16:53.558Z,15.26
2019-05-09T06:17:53.597Z,15.27
2019-05-09T06:18:53.635Z,15.27
2019-05-09T06:19:53.682Z,15.22
2019-05-09T06:20:53.716Z,14.99
2019-05-09T06:21:53.755Z,14.43
2019-05-09T06:22:53.794Z,14.11
2019-05-09T06:23:53.836Z,14.13
2019-05-09T06:24:53.876Z,14.28
2019-05-09T06:25:53.926Z,14.79
2019-05-09T06:26:53.956Z,15.14
2019-05-09T06:27:53.995Z,15.11
2019-05-09T06:28:54.036Z,15.17
2019-05-09T06:29:54.078Z,15.84
2019-05-09T06:30:54.118Z,15.43
2019-05-09T06:31:54.157Z,15.43
2019-05-09T06:32:54.197Z,14.99
2019-05-09T06:33:54.238Z,15.33
2019-05-09T06:34:54.277Z,15.63
2019-05-09T06:35:54.319Z,15.80
2019-05-09T06:36:54.360Z,15.62
2019-05-09T06:37:54.401Z,15.41
2019-05-09T06:38:54.444Z,15.55
2019-05-09T06:39:54.492Z,15.83
2019-05-09T06:40:54.523Z,16.06
2019-05-09T06:41:54.572Z,15.83
2019-05-09T06:42:54.606Z,15.99
2019-05-09T06:44:10.285Z,15.32
2019-05-09T06:44:54.687Z,15.19
2019-05-09T06:45:54.732Z,15.25
2019-05-09T06:46:54.771Z,15.98
2019-05-09T06:47:54.811Z,15.62
2019-05-09T06:49:19.510Z,15.33
2019-05-09T06:49:54.895Z,15.88
2019-05-09T06:50:54.936Z,16.40
2019-05-09T06:51:54.975Z,16.16
2019-05-09T06:52:57.197Z,16.10
2019-05-09T06:53:55.061Z,15.11
2019-05-09T06:54:55.104Z,15.23
2019-05-09T06:55:55.141Z,15.22
2019-05-09T06:56:55.183Z,14.62
2019-05-09T06:57:55.226Z,15.14
2019-05-09T06:58:55.269Z,15.65
2019-05-09T06:59:57.288Z,14.89
2019-05-09T07:00:55.351Z,14.56
2019-05-09T07:01:57.474Z,15.15
2019-05-09T07:02:57.573Z,15.02
2019-05-09T07:03:57.457Z,15.48
2019-05-09T07:04:55.517Z,14.97
2019-05-09T07:05:57.525Z,15.43
2019-05-09T07:06:55.600Z,15.33
2019-05-09T07:07:57.534Z,16.00
2019-05-09T07:08:58.325Z,16.22
2019-05-09T07:09:55.730Z,16.09
2019-05-09T07:10:55.768Z,16.08
2019-05-09T07:11:58.475Z,15.02
2019-05-09T07:12:55.854Z,14.61
2019-05-09T07:13:57.905Z,14.12
2019-05-09T07:14:58.088Z,13.73
2019-05-09T07:15:58.344Z,13.93
2019-05-09T07:16:58.292Z,14.37
2019-05-09T07:17:57.494Z,15.27
2019-05-09T07:18:57.931Z,15.33
2019-05-09T07:19:58.762Z,15.37
2019-05-09T07:20:57.673Z,15.19
2019-05-09T07:21:57.969Z,15.35
2019-05-09T07:22:58.248Z,15.78
2019-05-09T07:23:58.301Z,15.85
2019-05-09T07:25:00.940Z,15.43
2019-05-09T07:25:58.234Z,15.59
2019-05-09T07:26:58.376Z,16.34
2019-05-09T07:27:58.493Z,15.57
2019-05-09T07:28:56.524Z,16.54
2019-05-09T07:29:58.220Z,16.32
2019-05-09T07:30:57.359Z,16.26
2019-05-09T07:31:57.300Z,16.44
2019-05-09T07:32:57.942Z,16.26
2019-05-09T07:33:58.700Z,15.84
2019-05-09T07:34:57.914Z,16.50
2019-05-09T07:35:58.116Z,17.57
2019-05-09T07:36:58.081Z,16.86
2019-05-09T07:37:57.886Z,16.03
2019-05-09T07:38:58.272Z,15.63
2019-05-09T07:39:57.758Z,15.41
2019-05-09T07:40:58.074Z,15.22
2019-05-09T07:41:58.325Z,15.51
2019-05-09T07:42:58.413Z,15.76
2019-05-09T07:43:58.312Z,15.65
2019-05-09T07:44:59.169Z,15.59
2019-05-09T07:45:58.040Z,15.85
2019-05-09T07:46:58.038Z,15.96
2019-05-09T07:47:58.323Z,16.29
2019-05-09T07:48:57.904Z,16.73
2019-05-09T07:49:58.524Z,16.95
2019-05-09T07:50:59.702Z,17.01
2019-05-09T07:51:59.111Z,16.59
2019-05-09T07:52:58.277Z,16.64
2019-05-09T07:53:58.971Z,16.94
2019-05-09T07:54:58.150Z,16.40
2019-05-09T07:55:58.254Z,16.03
2019-05-09T07:56:58.083Z,16.64
2019-05-09T07:57:59.013Z,16.36
2019-05-09T07:58:58.606Z,16.79
2019-05-09T07:59:58.546Z,16.59
2019-05-09T08:01:01.270Z,15.90
2019-05-09T08:01:58.359Z,16.24
2019-05-09T08:02:58.191Z,15.85
2019-05-09T08:03:58.589Z,15.91
2019-05-09T08:04:58.253Z,16.32
2019-05-09T08:05:58.181Z,16.17
2019-05-09T08:06:58.165Z,17.05
2019-05-09T08:07:58.715Z,16.36
2019-05-09T08:08:58.464Z,16.54
2019-05-09T08:09:58.294Z,16.46
2019-05-09T08:10:58.637Z,16.08
2019-05-09T08:11:58.905Z,16.50
2019-05-09T08:12:58.784Z,16.51
2019-05-09T08:13:58.471Z,17.20
2019-05-09T08:15:10.317Z,17.19
2019-05-09T08:15:58.777Z,17.75
2019-05-09T08:16:58.602Z,16.86
2019-05-09T08:17:59.246Z,16.28
2019-05-09T08:18:58.694Z,16.21
2019-05-09T08:19:58.740Z,16.41
2019-05-09T08:20:58.785Z,16.41
2019-05-09T08:21:58.826Z,16.40
2019-05-09T08:23:02.211Z,16.62
2019-05-09T08:23:58.915Z,16.74
2019-05-09T08:24:58.960Z,16.82
2019-05-09T08:25:59.004Z,16.94
2019-05-09T08:26:59.048Z,17.93
2019-05-09T08:27:59.092Z,18.05
2019-05-09T08:28:59.139Z,17.82
2019-05-09T08:29:59.183Z,18.18
2019-05-09T08:30:59.227Z,18.31
2019-05-09T08:31:59.272Z,18.03
2019-05-09T08:33:00.088Z,17.49
2019-05-09T08:33:59.664Z,17.20
2019-05-09T08:34:59.410Z,16.87
2019-05-09T08:35:59.455Z,17.31
2019-05-09T08:36:59.499Z,17.04
2019-05-09T08:37:59.547Z,16.69
2019-05-09T08:38:59.590Z,17.20
2019-05-09T08:39:59.637Z,17.09
2019-05-09T08:40:59.682Z,16.58
2019-05-09T08:41:59.728Z,17.12
2019-05-09T08:42:59.773Z,16.65
2019-05-09T08:43:59.817Z,16.55
2019-05-09T08:44:59.863Z,17.07
2019-05-09T08:45:59.908Z,16.17
2019-05-09T08:46:59.953Z,15.96
2019-05-09T08:47:59.998Z,15.18
2019-05-09T08:49:00.046Z,15.35
2019-05-09T08:50:00.095Z,15.35
2019-05-09T08:51:00.134Z,15.18
2019-05-09T08:52:10.144Z,16.05
2019-05-09T08:53:00.224Z,16.47
2019-05-09T08:54:00.267Z,16.25
2019-05-09T08:55:00.312Z,15.88
2019-05-09T08:56:00.366Z,15.55
2019-05-09T08:57:00.401Z,15.62
2019-05-09T08:58:00.448Z,15.45
2019-05-09T08:59:02.172Z,16.16
2019-05-09T09:00:00.535Z,15.39
2019-05-09T09:01:03.754Z,15.35
2019-05-09T09:02:14.733Z,15.62
2019-05-09T09:03:00.671Z,15.98
2019-05-09T09:04:00.712Z,15.57
2019-05-09T09:05:00.763Z,16.28
2019-05-09T09:06:00.801Z,16.68
2019-05-09T09:07:00.850Z,17.12
2019-05-09T09:08:00.889Z,16.76
2019-05-09T09:09:00.938Z,16.24
2019-05-09T09:10:00.978Z,16.18
2019-05-09T09:11:01.024Z,16.39
2019-05-09T09:12:01.067Z,16.06
2019-05-09T09:13:01.111Z,15.43
2019-05-09T09:14:01.157Z,15.63
2019-05-09T09:15:01.216Z,15.81
2019-05-09T09:16:14.998Z,16.02
2019-05-09T09:17:01.289Z,16.62
2019-05-09T09:18:01.339Z,16.29
2019-05-09T09:19:01.375Z,16.08
2019-05-09T09:20:01.422Z,15.76
2019-05-09T09:21:01.489Z,16.08
2019-05-09T09:22:01.510Z,16.29
2019-05-09T09:23:01.552Z,16.98
2019-05-09T09:24:01.603Z,17.02
2019-05-09T09:25:01.643Z,17.04
2019-05-09T09:26:01.688Z,17.91
2019-05-09T09:27:01.730Z,17.94
2019-05-09T09:28:01.778Z,17.16
2019-05-09T09:29:01.821Z,17.22
2019-05-09T09:30:16.497Z,16.28
2019-05-09T09:31:01.931Z,16.29
2019-05-09T09:32:01.955Z,15.76
2019-05-09T09:33:02.008Z,15.87
2019-05-09T09:34:02.047Z,16.06
2019-05-09T09:35:02.092Z,16.69
2019-05-09T09:36:02.138Z,16.50
2019-05-09T09:37:05.276Z,17.10
2019-05-09T09:38:02.226Z,16.46
2019-05-09T09:39:03.176Z,16.66
2019-05-09T09:40:02.315Z,16.05
2019-05-09T09:41:02.361Z,15.80
2019-05-09T09:42:02.407Z,15.67
2019-05-09T09:43:02.451Z,15.72
2019-05-09T09:44:02.500Z,15.99
2019-05-09T09:45:02.543Z,15.63
2019-05-09T09:46:10.979Z,15.69
2019-05-09T09:47:02.630Z,15.65
2019-05-09T09:48:02.683Z,15.63
2019-05-09T09:49:02.719Z,16.40
2019-05-09T09:50:02.866Z,16.84
2019-05-09T09:51:02.809Z,17.05
2019-05-09T09:52:02.887Z,16.89
2019-05-09T09:53:02.903Z,16.58
2019-05-09T09:54:02.945Z,16.80
2019-05-09T09:55:02.991Z,16.66
2019-05-09T09:56:03.059Z,16.76
2019-05-09T09:57:03.083Z,16.49
2019-05-09T09:58:03.125Z,16.47
2019-05-09T09:59:03.168Z,16.73
2019-05-09T10:00:03.220Z,16.54
2019-05-09T10:01:03.907Z,17.32
2019-05-09T10:02:03.370Z,18.28
2019-05-09T10:03:03.349Z,17.60
2019-05-09T10:04:19.108Z,16.80
2019-05-09T10:05:03.448Z,16.94
2019-05-09T10:06:03.486Z,16.95
2019-05-09T10:07:03.528Z,16.99
2019-05-09T10:08:03.574Z,16.84
2019-05-09T10:09:03.621Z,16.24
2019-05-09T10:10:03.665Z,16.31
2019-05-09T10:11:03.711Z,16.37
2019-05-09T10:12:03.757Z,16.91
2019-05-09T10:13:04.354Z,16.29
2019-05-09T10:14:03.848Z,16.21
2019-05-09T10:15:03.894Z,16.21
2019-05-09T10:16:03.936Z,16.43
2019-05-09T10:17:03.990Z,16.91
2019-05-09T10:18:04.027Z,16.84
2019-05-09T10:19:04.067Z,16.69
2019-05-09T10:20:04.114Z,17.76
2019-05-09T10:21:04.156Z,18.23
2019-05-09T10:22:04.202Z,18.68
2019-05-09T10:23:11.735Z,18.28
2019-05-09T10:24:04.290Z,17.53
2019-05-09T10:25:04.342Z,16.86
2019-05-09T10:26:04.383Z,16.26
2019-05-09T10:27:04.426Z,16.76
2019-05-09T10:28:04.469Z,17.44
2019-05-09T10:29:04.521Z,18.12
2019-05-09T10:30:04.560Z,17.87
2019-05-09T10:31:04.603Z,17.56
2019-05-09T10:32:04.651Z,16.86
2019-05-09T10:33:04.695Z,17.12
2019-05-09T10:34:04.740Z,17.53
2019-05-09T10:35:04.791Z,17.87
2019-05-09T10:36:05.049Z,18.28
2019-05-09T10:37:04.873Z,18.19
2019-05-09T10:38:04.921Z,18.05
2019-05-09T10:39:04.964Z,17.88
2019-05-09T10:40:05.008Z,17.95
2019-05-09T10:41:05.211Z,18.49
2019-05-09T10:42:05.100Z,18.00
2019-05-09T10:43:07.980Z,17.82
2019-05-09T10:44:05.194Z,18.57
2019-05-09T10:45:07.316Z,19.19
2019-05-09T10:46:05.283Z,19.44
2019-05-09T10:47:05.327Z,19.66
2019-05-09T10:48:05.371Z,20.02
2019-05-09T10:49:08.033Z,20.04
2019-05-09T10:50:05.461Z,19.60
2019-05-09T10:51:08.414Z,19.53
2019-05-09T10:52:05.559Z,19.37
2019-05-09T10:53:07.798Z,19.44
2019-05-09T10:54:07.906Z,18.33
2019-05-09T10:55:05.695Z,18.41
2019-05-09T10:56:08.617Z,17.39
2019-05-09T10:57:05.790Z,16.61
2019-05-09T10:58:08.146Z,17.30
2019-05-09T10:59:07.780Z,17.46
2019-05-09T11:00:08.485Z,17.57
2019-05-09T11:01:09.080Z,17.52
2019-05-09T11:02:09.242Z,18.08
2019-05-09T11:03:08.532Z,17.75
2019-05-09T11:04:08.159Z,17.82
2019-05-09T11:05:08.399Z,17.84
2019-05-09T11:06:08.602Z,18.26
2019-05-09T11:07:08.118Z,18.08
2019-05-09T11:08:08.214Z,17.60
2019-05-09T11:09:08.607Z,17.66
2019-05-09T11:10:24.005Z,17.50
2019-05-09T11:11:09.331Z,18.03
2019-05-09T11:12:07.855Z,17.41
2019-05-09T11:13:07.583Z,17.38
2019-05-09T11:14:08.623Z,17.65
2019-05-09T11:15:08.962Z,17.50
2019-05-09T11:16:07.652Z,17.23
2019-05-09T11:17:14.365Z,17.65
2019-05-09T11:18:08.123Z,17.87
2019-05-09T11:19:07.945Z,18.11
2019-05-09T11:20:08.756Z,18.27
2019-05-09T11:21:08.447Z,18.24
2019-05-09T11:22:08.052Z,18.43
2019-05-09T11:23:08.035Z,18.60
2019-05-09T11:24:08.348Z,17.84
2019-05-09T11:25:08.787Z,18.41
2019-05-09T11:26:07.120Z,18.24
2019-05-09T11:27:08.491Z,17.94
2019-05-09T11:28:11.714Z,17.95
2019-05-09T11:29:07.991Z,18.48
2019-05-09T11:30:08.404Z,17.44
2019-05-09T11:31:08.290Z,18.05
2019-05-09T11:32:08.085Z,18.58
2019-05-09T11:33:07.913Z,18.34
2019-05-09T11:34:08.975Z,17.54
2019-05-09T11:35:09.021Z,17.72
2019-05-09T11:36:09.720Z,18.00
2019-05-09T11:37:08.492Z,18.51
2019-05-09T11:38:08.409Z,18.91
2019-05-09T11:39:10.597Z,19.24
2019-05-09T11:40:07.767Z,19.01
2019-05-09T11:41:08.375Z,19.35
2019-05-09T11:42:07.862Z,18.45
2019-05-09T11:43:07.906Z,18.36
2019-05-09T11:44:08.689Z,18.86
2019-05-09T11:45:08.012Z,18.51
2019-05-09T11:46:10.297Z,19.16
2019-05-09T11:47:27.648Z,19.82
2019-05-09T11:48:08.387Z,20.15
2019-05-09T11:49:08.668Z,19.99
2019-05-09T11:50:08.919Z,19.74
2019-05-09T11:51:08.951Z,19.39
2019-05-09T11:52:08.490Z,19.45
2019-05-09T11:53:08.963Z,19.42
2019-05-09T11:54:09.075Z,19.47
2019-05-09T11:55:27.481Z,19.05
2019-05-09T11:56:08.517Z,19.67
2019-05-09T11:57:08.566Z,18.91
2019-05-09T11:58:08.659Z,19.19
2019-05-09T11:59:08.658Z,19.37
2019-05-09T12:00:08.774Z,19.64
2019-05-09T12:01:08.755Z,19.62
2019-05-09T12:02:09.051Z,20.19
2019-05-09T12:03:09.271Z,19.99
2019-05-09T12:04:08.897Z,19.23
2019-05-09T12:05:09.030Z,19.66
2019-05-09T12:06:08.992Z,19.75
2019-05-09T12:07:09.040Z,19.53
2019-05-09T12:08:09.089Z,19.04
2019-05-09T12:09:09.151Z,19.49
2019-05-09T12:10:09.180Z,20.04
2019-05-09T12:11:09.230Z,20.59
2019-05-09T12:12:09.284Z,20.55
2019-05-09T12:13:09.324Z,20.89
2019-05-09T12:14:09.377Z,19.74
2019-05-09T12:15:09.419Z,18.26
2019-05-09T12:16:09.465Z,18.31
2019-05-09T12:17:09.513Z,18.85
2019-05-09T12:18:11.683Z,18.73
2019-05-09T12:19:09.609Z,18.82
2019-05-09T12:20:13.486Z,18.74
2019-05-09T12:21:09.707Z,18.16
2019-05-09T12:22:09.756Z,18.27
2019-05-09T12:23:09.803Z,18.52
2019-05-09T12:24:09.849Z,18.15
2019-05-09T12:25:09.899Z,18.68
2019-05-09T12:26:09.943Z,18.89
2019-05-09T12:27:09.995Z,19.20
2019-05-09T12:28:10.039Z,19.20
2019-05-09T12:29:10.087Z,18.34
2019-05-09T12:30:10.133Z,18.28
2019-05-09T12:31:10.182Z,18.76
2019-05-09T12:32:10.231Z,19.08
2019-05-09T12:33:10.278Z,19.23
2019-05-09T12:34:10.323Z,19.79
2019-05-09T12:35:10.370Z,20.29
2019-05-09T12:36:10.421Z,20.67
2019-05-09T12:37:10.474Z,21.11
2019-05-09T12:38:10.512Z,21.37
2019-05-09T12:39:10.560Z,21.15
2019-05-09T12:40:10.611Z,21.29
2019-05-09T12:41:10.656Z,21.30
2019-05-09T12:42:10.724Z,21.35
2019-05-09T12:43:10.753Z,21.51
2019-05-09T12:44:10.801Z,21.63
2019-05-09T12:45:10.849Z,21.62
2019-05-09T12:46:10.897Z,21.43
2019-05-09T12:47:11.021Z,21.17
2019-05-09T12:48:15.244Z,21.25
2019-05-09T12:49:11.042Z,20.59
2019-05-09T12:50:11.187Z,20.86
2019-05-09T12:51:11.139Z,20.07
2019-05-09T12:52:11.191Z,19.78
2019-05-09T12:53:11.238Z,20.19
2019-05-09T12:54:11.290Z,20.49
2019-05-09T12:55:13.030Z,20.95
2019-05-09T12:56:11.386Z,21.15
2019-05-09T12:57:11.434Z,21.58
2019-05-09T12:58:11.485Z,21.05
2019-05-09T12:59:11.531Z,21.15
2019-05-09T13:00:11.580Z,21.05
2019-05-09T13:01:11.627Z,20.52
2019-05-09T13:02:11.677Z,20.08